createdAt,value
2019-03-08T00:00:13.117Z,1.9
2019-03-08T00:03:32.579Z,1.6
2019-03-08T00:04:39.105Z,1.7
2019-03-08T00:05:45.546Z,1.8
2019-03-08T00:06:52.056Z,1.5
2019-03-08T00:07:58.567Z,2.2
2019-03-08T00:09:05.094Z,2.1
2019-03-08T00:10:11.056Z,1.7
2019-03-08T00:13:31.003Z,2
2019-03-08T00:14:37.531Z,1.9
2019-03-08T00:17:57.000Z,1.8
2019-03-08T00:21:16.520Z,2.3
2019-03-08T00:23:29.504Z,2.4
2019-03-08T00:25:42.049Z,1.8
2019-03-08T00:27:55.471Z,2.1
2019-03-08T00:29:01.940Z,2.4
2019-03-08T00:30:08.482Z,1.9
2019-03-08T00:31:14.914Z,2.3
2019-03-08T00:33:27.928Z,2
2019-03-08T00:34:34.045Z,1.6
2019-03-08T00:35:40.899Z,1.9
2019-03-08T00:36:47.426Z,1.5
2019-03-08T00:37:53.936Z,2
2019-03-08T00:39:00.380Z,1.9
2019-03-08T00:40:06.008Z,1.8
2019-03-08T00:41:13.420Z,1.7
2019-03-08T00:42:19.091Z,1.6
2019-03-08T00:43:26.395Z,1.8
2019-03-08T00:44:32.854Z,1.6
2019-03-08T00:45:39.399Z,1.4
2019-03-08T00:46:45.849Z,1.7
2019-03-08T00:47:52.332Z,1.9
2019-03-08T00:48:58.863Z,1.5
2019-03-08T00:52:18.293Z,1.8
2019-03-08T00:53:24.813Z,1.7
2019-03-08T00:54:31.319Z,2.1
2019-03-08T00:55:37.826Z,1.4
2019-03-08T00:56:44.276Z,1.8
2019-03-08T00:57:50.765Z,1.7
2019-03-08T00:58:57.268Z,2.1
2019-03-08T01:00:03.077Z,1.7
2019-03-08T01:02:16.750Z,2.1
2019-03-08T01:04:29.724Z,1.5
2019-03-08T01:05:36.234Z,2
2019-03-08T01:06:42.750Z,2.2
2019-03-08T01:07:49.257Z,1.7
2019-03-08T01:08:55.708Z,1.7
2019-03-08T01:11:08.715Z,1.7
2019-03-08T01:12:15.215Z,1.9
2019-03-08T01:15:34.707Z,1.8
2019-03-08T01:17:47.662Z,2.2
2019-03-08T01:18:54.186Z,1.9
2019-03-08T01:20:00.695Z,1.6
2019-03-08T01:21:07.016Z,1.5
2019-03-08T01:22:13.671Z,1.5
2019-03-08T01:23:20.119Z,1.7
2019-03-08T01:24:26.639Z,1.7
2019-03-08T01:25:33.153Z,2
2019-03-08T01:27:46.165Z,1.6
2019-03-08T01:29:59.151Z,1.7
2019-03-08T01:31:05.641Z,1.5
2019-03-08T01:32:12.131Z,1.4
2019-03-08T01:33:18.607Z,1.7
2019-03-08T01:34:25.125Z,1.8
2019-03-08T01:36:38.078Z,1.4
2019-03-08T01:37:44.056Z,1.8
2019-03-08T01:38:51.009Z,1.5
2019-03-08T01:41:04.076Z,1.3
2019-03-08T01:42:10.575Z,1.6
2019-03-08T01:43:17.045Z,1.6
2019-03-08T01:44:23.500Z,1.6
2019-03-08T01:46:36.547Z,1.9
2019-03-08T01:47:43.013Z,1.5
2019-03-08T01:48:49.481Z,1.8
2019-03-08T01:49:55.973Z,1.3
2019-03-08T01:51:02.518Z,1.7
2019-03-08T01:55:28.488Z,1.7
2019-03-08T01:56:34.952Z,1.4
2019-03-08T01:57:41.046Z,1.2
2019-03-08T01:58:47.960Z,1.9
2019-03-08T01:59:54.473Z,1.7
2019-03-08T02:02:07.423Z,1.5
2019-03-08T02:03:13.943Z,2
2019-03-08T02:04:20.421Z,1.7
2019-03-08T02:06:33.427Z,1.4
2019-03-08T02:07:39.895Z,1.4
2019-03-08T02:08:46.430Z,1.7
2019-03-08T02:10:59.402Z,2.1
2019-03-08T02:13:12.409Z,1.8
2019-03-08T02:15:25.334Z,1.8
2019-03-08T02:17:38.382Z,1.6
2019-03-08T02:20:57.829Z,1.7
2019-03-08T02:22:04.308Z,1.6
2019-03-08T02:24:17.293Z,2
2019-03-08T02:25:23.833Z,2.3
2019-03-08T02:26:30.322Z,1.6
2019-03-08T02:27:36.754Z,2.2
2019-03-08T02:28:43.316Z,1.8
2019-03-08T02:29:49.772Z,1.8
2019-03-08T02:33:09.288Z,2.1
2019-03-08T02:34:15.723Z,1.9
2019-03-08T02:35:22.248Z,2
2019-03-08T02:36:28.742Z,1.9
2019-03-08T02:37:35.222Z,2.3
2019-03-08T02:38:41.728Z,2
2019-03-08T02:39:48.229Z,2
2019-03-08T02:48:40.171Z,2
2019-03-08T02:49:46.721Z,1.8
2019-03-08T02:50:53.190Z,1.7
2019-03-08T02:51:59.714Z,2.1
2019-03-08T02:55:19.135Z,1.8
2019-03-08T02:56:25.650Z,1.7
2019-03-08T02:58:38.659Z,1.7
2019-03-08T02:59:45.171Z,2
2019-03-08T03:00:51.617Z,1.8
2019-03-08T03:01:58.126Z,2
2019-03-08T03:05:17.006Z,2.1
2019-03-08T03:07:30.063Z,1.7
2019-03-08T03:08:37.154Z,2.2
2019-03-08T03:10:50.010Z,1.9
2019-03-08T03:13:03.122Z,2
2019-03-08T03:14:09.569Z,2.1
2019-03-08T03:15:16.084Z,1.8
2019-03-08T03:16:22.591Z,2
2019-03-08T03:17:29.115Z,1.7
2019-03-08T03:19:42.071Z,2.1
2019-03-08T03:20:48.599Z,2
2019-03-08T03:21:55.057Z,1.8
2019-03-08T03:23:01.583Z,1.8
2019-03-08T03:24:08.027Z,1.9
2019-03-08T03:25:14.554Z,1.9
2019-03-08T03:26:21.064Z,1.8
2019-03-08T03:27:27.585Z,2
2019-03-08T03:28:34.031Z,1.6
2019-03-08T03:29:40.587Z,2
2019-03-08T03:31:53.502Z,1.7
2019-03-08T03:33:00.045Z,1.8
2019-03-08T03:34:06.051Z,2
2019-03-08T03:35:13.004Z,1.9
2019-03-08T03:41:51.996Z,1.6
2019-03-08T03:42:58.049Z,1.8
2019-03-08T03:44:05.022Z,1.5
2019-03-08T03:45:11.455Z,1.6
2019-03-08T03:47:24.458Z,1.6
2019-03-08T03:48:30.971Z,1.7
2019-03-08T03:50:44.007Z,1.4
2019-03-08T03:51:50.428Z,1.4
2019-03-08T03:52:56.945Z,1.5
2019-03-08T03:54:03.530Z,1.6
2019-03-08T03:55:09.921Z,1.3
2019-03-08T03:58:29.046Z,1.3
2019-03-08T03:59:35.934Z,1.3
2019-03-08T04:01:48.945Z,1.7
2019-03-08T04:02:55.462Z,1.4
2019-03-08T04:06:14.881Z,1.8
2019-03-08T04:07:21.400Z,1.5
2019-03-08T04:08:27.880Z,1.8
2019-03-08T04:10:40.945Z,1.5
2019-03-08T04:11:47.038Z,1.8
2019-03-08T04:17:19.856Z,1.7
2019-03-08T04:18:26.384Z,1.8
2019-03-08T04:19:32.833Z,1.9
2019-03-08T04:20:39.000Z,1.8
2019-03-08T04:21:45.862Z,1.9
2019-03-08T04:22:52.370Z,1.8
2019-03-08T04:23:58.082Z,1.9
2019-03-08T04:25:05.035Z,1.9
2019-03-08T04:26:11.877Z,1.7
2019-03-08T04:27:18.374Z,2.1
2019-03-08T04:28:24.841Z,2.2
2019-03-08T04:29:31.325Z,2.2
2019-03-08T04:30:37.837Z,2
2019-03-08T04:31:44.028Z,2.1
2019-03-08T04:32:50.787Z,1.8
2019-03-08T04:33:57.329Z,2.4
2019-03-08T04:35:03.837Z,2.2
2019-03-08T04:36:10.030Z,2.2
2019-03-08T04:37:16.771Z,2.2
2019-03-08T04:38:23.321Z,2.3
2019-03-08T04:39:29.769Z,2.1
2019-03-08T04:40:36.029Z,2.1
2019-03-08T04:42:49.269Z,2.3
2019-03-08T04:43:55.799Z,1.7
2019-03-08T04:45:02.266Z,1.8
2019-03-08T04:46:08.789Z,1.8
2019-03-08T04:47:15.272Z,1.8
2019-03-08T04:48:21.722Z,2.5
2019-03-08T04:49:28.243Z,1.7
2019-03-08T04:50:34.777Z,1.8
2019-03-08T04:55:00.733Z,1.9
2019-03-08T04:56:07.239Z,1.7
2019-03-08T04:57:13.758Z,2
2019-03-08T04:58:20.224Z,1.9
2019-03-08T05:00:33.219Z,2.1
2019-03-08T05:01:39.670Z,2.1
2019-03-08T05:03:52.734Z,2
2019-03-08T05:04:59.017Z,2
2019-03-08T05:07:12.154Z,1.9
2019-03-08T05:08:18.652Z,1.6
2019-03-08T05:09:25.205Z,1.9
2019-03-08T05:10:31.664Z,1.8
2019-03-08T05:12:44.690Z,1.7
2019-03-08T05:13:51.202Z,1.5
2019-03-08T05:14:57.064Z,1.4
2019-03-08T05:16:04.177Z,1.4
2019-03-08T05:17:10.653Z,1.6
2019-03-08T05:18:17.162Z,1.3
2019-03-08T05:19:23.615Z,1.2
2019-03-08T05:20:30.142Z,1.4
2019-03-08T05:21:36.664Z,1.6
2019-03-08T05:23:49.631Z,1.2
2019-03-08T05:24:56.144Z,1.2
2019-03-08T05:26:02.618Z,1.3
2019-03-08T05:28:15.583Z,1.3
2019-03-08T05:29:22.101Z,1.2
2019-03-08T05:30:28.565Z,1.2
2019-03-08T05:31:35.087Z,1.4
2019-03-08T05:33:48.071Z,1.4
2019-03-08T05:34:54.597Z,1.6
2019-03-08T05:36:01.061Z,1.6
2019-03-08T05:37:07.580Z,1.7
2019-03-08T05:40:27.040Z,1.9
2019-03-08T05:41:33.568Z,1.6
2019-03-08T05:42:40.035Z,1.9
2019-03-08T05:44:53.023Z,1.6
2019-03-08T05:48:12.525Z,2.2
2019-03-08T05:49:18.997Z,2.1
2019-03-08T05:50:25.502Z,2.3
2019-03-08T05:51:31.998Z,2.2
2019-03-08T05:54:51.525Z,2.4
2019-03-08T05:55:57.968Z,2.5
2019-03-08T05:57:04.504Z,2.1
2019-03-08T05:58:11.012Z,2.2
2019-03-08T06:00:23.986Z,2.6
2019-03-08T06:01:30.487Z,2.3
2019-03-08T06:02:36.982Z,2.4
2019-03-08T06:03:43.453Z,2.5
2019-03-08T06:04:49.956Z,2.4
2019-03-08T06:05:56.449Z,2.4
2019-03-08T06:07:03.043Z,2.3
2019-03-08T06:08:09.434Z,2.3
2019-03-08T06:09:15.948Z,2.4
2019-03-08T06:10:22.044Z,2.4
2019-03-08T06:12:35.434Z,2.5
2019-03-08T06:13:41.930Z,6.9
2019-03-08T06:14:48.440Z,3.2
2019-03-08T06:17:01.436Z,3.2
2019-03-08T06:18:07.909Z,2.6
2019-03-08T06:19:14.440Z,2.8
2019-03-08T06:20:20.905Z,3.1
2019-03-08T06:21:27.447Z,2.7
2019-03-08T06:22:33.878Z,3
2019-03-08T06:24:46.878Z,2.8
2019-03-08T06:25:53.402Z,2.7
2019-03-08T06:26:59.092Z,3.3
2019-03-08T06:29:12.845Z,3.1
2019-03-08T06:30:19.037Z,3.2
2019-03-08T06:32:32.388Z,3.2
2019-03-08T06:33:38.837Z,3.1
2019-03-08T06:34:45.345Z,3.6
2019-03-08T06:35:51.868Z,3.4
2019-03-08T06:36:58.376Z,3.4
2019-03-08T06:38:04.833Z,3.3
2019-03-08T06:40:17.856Z,3.8
2019-03-08T06:42:30.832Z,3.9
2019-03-08T06:43:37.300Z,4.2
2019-03-08T06:46:56.822Z,3.8
2019-03-08T06:49:09.784Z,4.1
2019-03-08T06:51:22.783Z,4.1
2019-03-08T06:53:35.780Z,4.4
2019-03-08T06:54:42.319Z,4.2
2019-03-08T06:56:55.383Z,3.9
2019-03-08T06:58:01.078Z,4.2
2019-03-08T07:00:14.747Z,3.6
2019-03-08T07:01:21.264Z,4.4
2019-03-08T07:04:40.747Z,4.1
2019-03-08T07:05:47.219Z,4.5
2019-03-08T07:06:53.727Z,4.2
2019-03-08T07:08:00.273Z,4.3
2019-03-08T07:09:06.074Z,4.1
2019-03-08T07:10:13.211Z,4.1
2019-03-08T07:11:19.756Z,4.8
2019-03-08T07:13:32.713Z,4.6
2019-03-08T07:16:52.186Z,4.4
2019-03-08T07:19:05.191Z,5
2019-03-08T07:20:11.819Z,4.5
2019-03-08T07:21:18.227Z,4.7
2019-03-08T07:23:31.172Z,4.2
2019-03-08T07:25:44.153Z,4.6
2019-03-08T07:26:50.663Z,4.2
2019-03-08T07:27:57.162Z,4.9
2019-03-08T07:30:10.193Z,4.6
2019-03-08T07:32:23.158Z,4.4
2019-03-08T07:33:29.652Z,4.7
2019-03-08T07:34:36.149Z,4
2019-03-08T07:35:42.684Z,4.1
2019-03-08T07:36:49.144Z,4.9
2019-03-08T07:37:55.613Z,4.6
2019-03-08T07:40:08.648Z,4.9
2019-03-08T07:42:21.628Z,4.7
2019-03-08T07:43:28.001Z,5.1
2019-03-08T07:44:34.591Z,4.7
2019-03-08T07:46:47.596Z,5.4
2019-03-08T07:47:54.121Z,4.6
2019-03-08T07:49:00.000Z,4.8
2019-03-08T07:50:07.085Z,4.6
2019-03-08T07:52:20.011Z,4.9
2019-03-08T07:53:26.608Z,5.1
2019-03-08T07:54:33.068Z,5.1
2019-03-08T07:55:39.594Z,5.1
2019-03-08T07:57:52.585Z,5.5
2019-03-08T07:58:59.083Z,4.7
2019-03-08T08:00:05.598Z,5
2019-03-08T08:01:12.056Z,4.9
2019-03-08T08:03:25.039Z,5
2019-03-08T08:04:31.558Z,4.9
2019-03-08T08:05:38.079Z,4.8
2019-03-08T08:06:44.520Z,4.8
2019-03-08T08:08:57.549Z,5.6
2019-03-08T08:10:04.062Z,5.1
2019-03-08T08:11:10.521Z,5.1
2019-03-08T08:12:17.037Z,5.2
2019-03-08T08:13:23.508Z,5.9
2019-03-08T08:15:36.526Z,5
2019-03-08T08:16:43.051Z,4.9
2019-03-08T08:17:49.495Z,5.4
2019-03-08T08:18:56.031Z,5.1
2019-03-08T08:20:02.488Z,5.7
2019-03-08T08:21:08.876Z,5.2
2019-03-08T08:23:22.000Z,5.1
2019-03-08T08:26:41.506Z,5.4
2019-03-08T08:27:47.968Z,5.1
2019-03-08T08:28:54.499Z,5.9
2019-03-08T08:30:00.962Z,5.9
2019-03-08T08:31:07.470Z,6.3
2019-03-08T08:32:14.000Z,5.9
2019-03-08T08:33:20.481Z,6.5
2019-03-08T08:35:33.464Z,6.6
2019-03-08T08:38:57.968Z,7.2
2019-03-08T08:39:59.469Z,7
2019-03-08T08:42:12.456Z,6.7
2019-03-08T08:43:18.902Z,6.5
2019-03-08T08:48:51.040Z,6
2019-03-08T08:49:57.940Z,6.3
2019-03-08T08:52:10.091Z,6.4
2019-03-08T08:53:17.386Z,6.4
2019-03-08T08:54:23.860Z,6.5
2019-03-08T08:55:30.409Z,6.4
2019-03-08T08:57:43.365Z,6.8
2019-03-08T08:58:49.850Z,6.6
2019-03-08T08:59:56.342Z,6.8
2019-03-08T09:01:02.085Z,6.6
2019-03-08T09:02:09.382Z,7
2019-03-08T09:03:15.832Z,6.6
2019-03-08T09:05:28.088Z,5.9
2019-03-08T09:06:35.388Z,6.2
2019-03-08T09:08:48.326Z,6
2019-03-08T09:09:54.847Z,6.6
2019-03-08T09:14:20.845Z,5.6
2019-03-08T09:16:33.842Z,6.4
2019-03-08T09:17:40.307Z,5.9
2019-03-08T09:20:59.773Z,6.2
2019-03-08T09:24:19.275Z,6.4
2019-03-08T09:28:45.262Z,5.9
2019-03-08T09:29:51.767Z,6.4
2019-03-08T09:32:04.793Z,6.4
2019-03-08T09:34:17.763Z,6.8
2019-03-08T09:36:30.749Z,7.3
2019-03-08T09:37:37.260Z,6.7
2019-03-08T09:38:43.622Z,6.8
2019-03-08T09:40:56.722Z,6.6
2019-03-08T09:42:03.269Z,6.8
2019-03-08T09:44:16.000Z,6.5
2019-03-08T09:45:22.707Z,6.6
2019-03-08T09:47:35.073Z,6.9
2019-03-08T09:48:42.089Z,6.8
2019-03-08T09:49:48.000Z,7.2
2019-03-08T09:50:55.018Z,7
2019-03-08T09:52:01.692Z,8
2019-03-08T09:53:08.182Z,7.1
2019-03-08T09:55:21.192Z,6.9
2019-03-08T09:56:27.688Z,6.1
2019-03-08T09:58:40.071Z,6.1
2019-03-08T09:59:47.206Z,6.4
2019-03-08T10:03:06.699Z,6
2019-03-08T10:05:19.637Z,6.9
2019-03-08T10:07:32.068Z,5.7
2019-03-08T10:08:39.182Z,5.5
2019-03-08T10:09:45.645Z,5.4
2019-03-08T10:10:52.143Z,5.3
2019-03-08T10:11:58.623Z,4.9
2019-03-08T10:15:18.130Z,5.3
2019-03-08T10:18:37.640Z,4.6
2019-03-08T10:19:44.138Z,5.2
2019-03-08T10:20:50.645Z,4.8
2019-03-08T10:23:03.605Z,4.3
2019-03-08T10:24:10.113Z,4.4
2019-03-08T10:25:16.606Z,3.9
2019-03-08T10:27:29.607Z,4.7
2019-03-08T10:30:49.080Z,3.8
2019-03-08T10:31:55.569Z,3.7
2019-03-08T10:33:02.098Z,3.9
2019-03-08T10:34:08.584Z,3.6
2019-03-08T10:35:15.087Z,3.8
2019-03-08T10:36:21.597Z,3.4
2019-03-08T10:38:34.562Z,3.6
2019-03-08T10:39:41.055Z,3.6
2019-03-08T10:40:47.566Z,3.1
2019-03-08T10:41:54.065Z,3.5
2019-03-08T10:46:20.043Z,3.4
2019-03-08T10:47:26.551Z,3.4
2019-03-08T10:50:46.011Z,3.3
2019-03-08T10:51:52.051Z,3.3
2019-03-08T10:52:58.994Z,3.1
2019-03-08T10:54:05.515Z,3.2
2019-03-08T10:55:12.040Z,3.4
2019-03-08T10:57:24.982Z,3.3
2019-03-08T10:58:31.478Z,3.2
2019-03-08T10:59:37.957Z,3.2
2019-03-08T11:06:16.983Z,3.5
2019-03-08T11:07:23.488Z,3.3
2019-03-08T11:10:42.971Z,3.5
2019-03-08T11:12:55.961Z,3.4
2019-03-08T11:14:02.047Z,3.1
2019-03-08T11:15:08.991Z,3.3
2019-03-08T11:16:15.047Z,3.5
2019-03-08T11:17:21.970Z,2.9
2019-03-08T11:18:28.048Z,3.2
2019-03-08T11:20:41.443Z,3.5
2019-03-08T11:22:54.432Z,3
2019-03-08T11:24:00.924Z,3.5
2019-03-08T11:25:07.455Z,3
2019-03-08T11:28:26.914Z,3
2019-03-08T11:29:33.450Z,2.9
2019-03-08T11:30:39.874Z,3.3
2019-03-08T11:32:52.863Z,3.7
2019-03-08T11:33:59.428Z,3.9
2019-03-08T11:35:05.863Z,4.1
2019-03-08T11:36:12.427Z,3.6
2019-03-08T11:37:18.855Z,3.7
2019-03-08T11:38:25.364Z,3.4
2019-03-08T11:39:31.896Z,3.9
2019-03-08T11:40:38.393Z,4.2
2019-03-08T11:45:04.036Z,4.8
2019-03-08T11:48:23.846Z,3.9
2019-03-08T11:50:36.808Z,4.9
2019-03-08T11:51:43.349Z,4.5
2019-03-08T11:52:49.834Z,4.7
2019-03-08T11:53:56.332Z,4.6
2019-03-08T11:56:09.302Z,4.8
2019-03-08T11:57:15.805Z,4.5
2019-03-08T11:59:28.832Z,4.9
2019-03-08T12:02:48.276Z,4.5
2019-03-08T12:03:54.799Z,4.8
2019-03-08T12:07:14.284Z,4.6
2019-03-08T12:08:20.763Z,4.7
2019-03-08T12:09:27.281Z,4.6
2019-03-08T12:11:40.291Z,4.8
2019-03-08T12:12:46.741Z,4.2
2019-03-08T12:13:53.240Z,4.9
2019-03-08T12:14:59.754Z,4.4
2019-03-08T12:16:06.255Z,4.9
2019-03-08T12:17:12.755Z,4.9
2019-03-08T12:18:19.245Z,5.2
2019-03-08T12:20:32.214Z,4.9
2019-03-08T12:22:45.209Z,5.4
2019-03-08T12:23:51.716Z,5.5
2019-03-08T12:24:58.227Z,5.2
2019-03-08T12:28:17.713Z,5.6
2019-03-08T12:29:24.170Z,4.9
2019-03-08T12:30:30.658Z,5
2019-03-08T12:31:37.200Z,5.1
2019-03-08T12:32:43.000Z,4.3
2019-03-08T12:33:50.153Z,4.7
2019-03-08T12:36:03.013Z,3.9
2019-03-08T12:37:09.637Z,4.5
2019-03-08T12:38:16.144Z,4.4
2019-03-08T12:42:42.137Z,4.5
2019-03-08T12:46:01.613Z,4.5
2019-03-08T12:47:08.078Z,4.8
2019-03-08T12:48:14.614Z,4.5
2019-03-08T12:49:21.060Z,4.4
2019-03-08T12:50:27.053Z,4.5
2019-03-08T12:51:34.000Z,4.1
2019-03-08T12:52:40.581Z,4.2
2019-03-08T12:53:47.055Z,5
2019-03-08T12:54:53.503Z,4.4
2019-03-08T12:56:00.066Z,3.9
2019-03-08T12:58:13.045Z,4.3
2019-03-08T12:59:19.523Z,4.7
2019-03-08T13:00:26.040Z,4.8
2019-03-08T13:01:32.480Z,4.7
2019-03-08T13:02:38.979Z,4.4
2019-03-08T13:03:45.516Z,4.1
2019-03-08T13:05:58.049Z,4.4
2019-03-08T13:07:04.990Z,3.8
2019-03-08T13:09:17.924Z,3.8
2019-03-08T13:10:24.425Z,3.7
2019-03-08T13:13:43.966Z,4.1
2019-03-08T13:15:56.914Z,3.4
2019-03-08T13:17:03.420Z,3.4
2019-03-08T13:18:09.914Z,3.7
2019-03-08T13:19:16.393Z,3.3
2019-03-08T13:21:29.401Z,3.3
2019-03-08T13:22:35.862Z,3.3
2019-03-08T13:23:42.416Z,3.1
2019-03-08T13:24:48.900Z,3.6
2019-03-08T13:25:55.363Z,3.7
2019-03-08T13:27:01.860Z,3.5
2019-03-08T13:28:08.346Z,3.5
2019-03-08T13:29:14.849Z,3.2
2019-03-08T13:30:21.370Z,3.6
2019-03-08T13:32:34.317Z,3.4
2019-03-08T13:33:40.824Z,3.7
2019-03-08T13:35:53.851Z,3
2019-03-08T13:37:00.290Z,3.4
2019-03-08T13:40:19.797Z,2.9
2019-03-08T13:41:26.262Z,3.3
2019-03-08T13:42:32.798Z,3.2
2019-03-08T13:44:45.793Z,3.1
2019-03-08T13:45:52.302Z,3.2
2019-03-08T13:46:58.739Z,3.2
2019-03-08T13:48:05.268Z,3.3
2019-03-08T13:49:11.756Z,2.4
2019-03-08T13:50:18.241Z,2.7
2019-03-08T13:51:24.761Z,2.4
2019-03-08T13:53:37.714Z,2.6
2019-03-08T13:55:50.717Z,2.1
2019-03-08T13:59:10.178Z,2.5
2019-03-08T14:00:16.646Z,2.9
2019-03-08T14:01:23.000Z,2.2
2019-03-08T14:03:36.140Z,2.4
2019-03-08T14:04:42.644Z,2.9
2019-03-08T14:05:49.153Z,2.5
2019-03-08T14:06:55.655Z,2.5
2019-03-08T14:08:02.112Z,2.2
2019-03-08T14:09:08.509Z,2.2
2019-03-08T14:10:15.132Z,2.3
2019-03-08T14:12:28.127Z,2
2019-03-08T14:14:41.137Z,2
2019-03-08T14:15:47.613Z,2.2
2019-03-08T14:16:54.111Z,1.9
2019-03-08T14:20:13.005Z,2
2019-03-08T14:22:26.550Z,1.9
2019-03-08T14:24:39.554Z,2
2019-03-08T14:25:46.056Z,2.1
2019-03-08T14:26:52.511Z,2
2019-03-08T14:27:59.055Z,2
2019-03-08T14:29:05.559Z,2.5
2019-03-08T14:31:18.488Z,1.7
2019-03-08T14:32:24.980Z,2.4
2019-03-08T14:34:37.992Z,2.2
2019-03-08T14:36:50.949Z,2.1
2019-03-08T14:37:57.475Z,1.9
2019-03-08T14:39:03.986Z,2
2019-03-08T14:42:23.456Z,1.9
2019-03-08T14:43:29.967Z,1.8
2019-03-08T14:45:42.948Z,2.3
2019-03-08T14:47:55.959Z,2.2
2019-03-08T14:49:02.391Z,2
2019-03-08T14:50:08.905Z,2.2
2019-03-08T14:51:15.411Z,2
2019-03-08T14:52:21.909Z,1.9
2019-03-08T14:53:28.400Z,2
2019-03-08T14:54:34.900Z,1.9
2019-03-08T14:55:41.391Z,2.4
2019-03-08T14:57:54.377Z,2
2019-03-08T14:59:00.869Z,2
2019-03-08T15:00:07.389Z,2.1
2019-03-08T15:01:13.836Z,2.1
2019-03-08T15:02:20.339Z,2
2019-03-08T15:04:33.325Z,2.2
2019-03-08T15:06:46.342Z,2
2019-03-08T15:07:52.000Z,1.8
2019-03-08T15:10:05.796Z,2.1
2019-03-08T15:11:12.300Z,2.5
2019-03-08T15:12:18.817Z,2.1
2019-03-08T15:13:25.291Z,1.9
2019-03-08T15:17:51.292Z,2.3
2019-03-08T15:18:57.730Z,2.4
2019-03-08T15:20:04.230Z,2
2019-03-08T15:21:10.726Z,2.1
2019-03-08T15:22:17.233Z,2.1
2019-03-08T15:23:23.722Z,2.3
2019-03-08T15:24:30.027Z,2.2
2019-03-08T15:25:36.740Z,2.1
2019-03-08T15:26:43.250Z,1.9
2019-03-08T15:27:49.695Z,2.5
2019-03-08T15:28:56.222Z,2.4
2019-03-08T15:30:02.684Z,2.6
2019-03-08T15:32:15.700Z,2.4
2019-03-08T15:33:22.174Z,2.1
2019-03-08T15:35:35.168Z,2.2
2019-03-08T15:36:41.718Z,2.1
2019-03-08T15:37:48.206Z,2.2
2019-03-08T15:38:54.677Z,2.1
2019-03-08T15:41:07.619Z,2.2
2019-03-08T15:42:14.016Z,2
2019-03-08T15:44:27.134Z,2.6
2019-03-08T15:45:33.658Z,2.5
2019-03-08T15:46:40.143Z,2.4
2019-03-08T15:47:46.000Z,2.1
2019-03-08T15:48:53.107Z,2.6
2019-03-08T15:51:06.132Z,1.9
2019-03-08T15:52:12.561Z,2.2
2019-03-08T15:56:38.000Z,2.7
2019-03-08T15:57:45.067Z,2.5
2019-03-08T15:58:51.000Z,2
2019-03-08T15:59:58.042Z,2.3
2019-03-08T16:01:04.559Z,2.3
2019-03-08T16:02:11.067Z,2.1
2019-03-08T16:04:23.992Z,2
2019-03-08T16:05:30.515Z,2
2019-03-08T16:07:43.543Z,2
2019-03-08T16:08:49.991Z,2.1
2019-03-08T16:09:56.501Z,1.9
2019-03-08T16:12:09.000Z,2.1
2019-03-08T16:14:22.485Z,2.2
2019-03-08T16:15:28.097Z,2.1
2019-03-08T16:16:35.504Z,2.2
2019-03-08T16:17:41.960Z,1.8
2019-03-08T16:19:54.980Z,2
2019-03-08T16:21:01.431Z,2.4
2019-03-08T16:23:14.412Z,2.2
2019-03-08T16:24:20.944Z,2.3
2019-03-08T16:25:27.411Z,2.6
2019-03-08T16:27:40.399Z,2.6
2019-03-08T16:28:46.908Z,2.1
2019-03-08T16:30:59.883Z,2.2
2019-03-08T16:33:12.087Z,2.2
2019-03-08T16:34:19.384Z,2.4
2019-03-08T16:35:25.889Z,2.7
2019-03-08T16:38:45.318Z,2.8
2019-03-08T16:39:51.851Z,2.5
2019-03-08T16:40:58.346Z,2.4
2019-03-08T16:44:17.828Z,2.3
2019-03-08T16:47:37.333Z,2.2
2019-03-08T16:48:43.809Z,2.7
2019-03-08T16:49:50.303Z,2.9
2019-03-08T16:52:03.249Z,2.3
2019-03-08T16:54:16.239Z,2
2019-03-08T16:55:22.744Z,3.1
2019-03-08T16:58:42.024Z,2.2
2019-03-08T17:02:01.755Z,2.1
2019-03-08T17:03:08.251Z,2.2
2019-03-08T17:04:14.068Z,2.6
2019-03-08T17:05:21.214Z,2.6
2019-03-08T17:06:27.717Z,2.5
2019-03-08T17:07:34.162Z,2.3
2019-03-08T17:12:00.145Z,2.6
2019-03-08T17:13:06.669Z,2.4
2019-03-08T17:14:13.138Z,2.4
2019-03-08T17:15:19.618Z,2.2
2019-03-08T17:18:39.150Z,2.1
2019-03-08T17:19:45.624Z,2.3
2019-03-08T17:20:52.088Z,2.3
2019-03-08T17:21:58.061Z,2
2019-03-08T17:23:05.068Z,2
2019-03-08T17:24:11.599Z,2.4
2019-03-08T17:25:18.117Z,2
2019-03-08T17:26:24.564Z,2.3
2019-03-08T17:27:31.134Z,2.5
2019-03-08T17:29:44.078Z,2.3
2019-03-08T17:30:50.542Z,2.3
2019-03-08T17:33:03.509Z,1.9
2019-03-08T17:34:10.042Z,2.2
2019-03-08T17:35:16.548Z,2.2
2019-03-08T17:37:29.005Z,2.2
2019-03-08T17:38:36.000Z,2
2019-03-08T17:40:49.023Z,1.9
2019-03-08T17:41:55.477Z,1.7
2019-03-08T17:43:01.975Z,2.2
2019-03-08T17:45:14.974Z,2.2
2019-03-08T17:47:27.942Z,2.1
2019-03-08T17:48:34.488Z,2.1
2019-03-08T17:50:47.419Z,2.4
2019-03-08T17:51:53.942Z,2.5
2019-03-08T17:53:00.448Z,2
2019-03-08T17:56:19.947Z,2.1
2019-03-08T17:57:26.406Z,1.9
2019-03-08T17:59:39.380Z,1.8
2019-03-08T18:00:45.899Z,2
2019-03-08T18:01:52.405Z,2.3
2019-03-08T18:04:05.333Z,2.3
2019-03-08T18:05:11.861Z,2.5
2019-03-08T18:06:18.351Z,2.4
2019-03-08T18:08:31.361Z,2.6
2019-03-08T18:10:44.317Z,3.1
2019-03-08T18:11:50.843Z,3.3
2019-03-08T18:12:57.351Z,4
2019-03-08T18:14:03.800Z,4.2
2019-03-08T18:16:16.776Z,3.6
2019-03-08T18:17:23.272Z,4.2
2019-03-08T18:18:29.770Z,3.9
2019-03-08T18:19:36.282Z,4
2019-03-08T18:20:42.814Z,3.5
2019-03-08T18:22:55.743Z,4.3
2019-03-08T18:24:02.279Z,2.7
2019-03-08T18:25:08.720Z,3.9
2019-03-08T18:27:21.731Z,3.4
2019-03-08T18:28:28.240Z,3.4
2019-03-08T18:29:34.732Z,3.5
2019-03-08T18:31:47.681Z,3.4
2019-03-08T18:32:54.188Z,3.8
2019-03-08T18:35:07.023Z,3.8
2019-03-08T18:36:13.679Z,4
2019-03-08T18:38:26.667Z,9.5
2019-03-08T18:39:33.177Z,6.6
2019-03-08T18:43:59.153Z,4.7
2019-03-08T18:45:05.659Z,3.6
2019-03-08T18:47:18.635Z,4.3
2019-03-08T18:48:25.159Z,4.1
2019-03-08T18:50:38.012Z,8.8
2019-03-08T18:51:44.624Z,6.3
2019-03-08T18:52:51.110Z,4.3
2019-03-08T18:53:57.006Z,4.2
2019-03-08T18:55:04.123Z,4.5
2019-03-08T18:56:10.595Z,4.3
2019-03-08T18:58:23.539Z,4.2
2019-03-08T18:59:30.055Z,3.8
2019-03-08T19:00:36.574Z,4.1
2019-03-08T19:01:43.033Z,4.9
2019-03-08T19:02:49.552Z,3.9
2019-03-08T19:03:56.062Z,4.6
2019-03-08T19:06:09.018Z,4.1
2019-03-08T19:09:28.489Z,4.4
2019-03-08T19:10:34.099Z,4.8
2019-03-08T19:11:41.528Z,4
2019-03-08T19:12:47.984Z,4.8
2019-03-08T19:13:54.501Z,4.6
2019-03-08T19:15:00.956Z,4.7
2019-03-08T19:16:07.481Z,4.2
2019-03-08T19:17:14.001Z,4.6
2019-03-08T19:18:20.477Z,4.1
2019-03-08T19:19:26.966Z,3.6
2019-03-08T19:21:39.949Z,4
2019-03-08T19:22:46.454Z,4.4
2019-03-08T19:23:52.923Z,4.1
2019-03-08T19:24:59.437Z,4.4
2019-03-08T19:26:05.959Z,4.9
2019-03-08T19:27:12.042Z,5.2
2019-03-08T19:28:18.888Z,4.8
2019-03-08T19:30:31.922Z,4.9
2019-03-08T19:31:38.431Z,4.7
2019-03-08T19:32:44.917Z,5.4
2019-03-08T19:33:51.378Z,5.1
2019-03-08T19:34:57.851Z,6.4
2019-03-08T19:36:04.340Z,6.6
2019-03-08T19:37:10.882Z,6.5
2019-03-08T19:38:17.394Z,7.3
2019-03-08T19:39:23.833Z,6.7
2019-03-08T19:40:30.363Z,7.2
2019-03-08T19:41:36.887Z,13.5
2019-03-08T19:43:49.857Z,9.6
2019-03-08T19:44:56.360Z,7.7
2019-03-08T19:46:02.082Z,6.7
2019-03-08T19:47:09.300Z,10.3
2019-03-08T19:49:22.294Z,8.1
2019-03-08T19:50:28.819Z,5.1
2019-03-08T19:51:35.305Z,6.2
2019-03-08T19:52:41.876Z,9.1
2019-03-08T19:53:48.297Z,8
2019-03-08T19:54:54.771Z,8.9
2019-03-08T19:56:01.287Z,7.4
2019-03-08T19:57:07.739Z,5
2019-03-08T19:58:14.262Z,5
2019-03-08T20:01:33.737Z,10.5
2019-03-08T20:02:40.242Z,6.5
2019-03-08T20:03:46.755Z,6
2019-03-08T20:04:53.211Z,4.3
2019-03-08T20:08:12.673Z,4.7
2019-03-08T20:09:19.181Z,9.3
2019-03-08T20:12:38.660Z,7.4
2019-03-08T20:13:45.157Z,7
2019-03-08T20:14:51.069Z,4.6
2019-03-08T20:17:04.679Z,4.9
2019-03-08T20:18:11.136Z,7.5
2019-03-08T20:19:17.649Z,5.3
2019-03-08T20:20:24.164Z,5.9
2019-03-08T20:21:30.618Z,6.1
2019-03-08T20:22:37.015Z,5
2019-03-08T20:23:43.621Z,5.5
2019-03-08T20:24:50.012Z,5.9
2019-03-08T20:25:56.643Z,5.5
2019-03-08T20:28:09.633Z,4
2019-03-08T20:30:22.633Z,3.6
2019-03-08T20:32:35.573Z,4.4
2019-03-08T20:33:42.049Z,4.8
2019-03-08T20:35:55.060Z,3.7
2019-03-08T20:37:01.580Z,3.8
2019-03-08T20:38:08.041Z,3.5
2019-03-08T20:39:14.543Z,3.6
2019-03-08T20:40:21.037Z,3.7
2019-03-08T20:41:27.514Z,4.2
2019-03-08T20:42:34.017Z,3.7
2019-03-08T20:43:40.054Z,3.8
2019-03-08T20:45:53.496Z,4.2
2019-03-08T20:47:00.028Z,3.5
2019-03-08T20:48:06.505Z,3.8
2019-03-08T20:49:13.021Z,3.4
2019-03-08T20:50:19.450Z,3.6
2019-03-08T20:51:25.937Z,3.2
2019-03-08T20:52:32.443Z,3.6
2019-03-08T20:53:38.948Z,3.6
2019-03-08T20:54:45.456Z,3.8
2019-03-08T20:55:51.978Z,3.8
2019-03-08T20:58:04.952Z,4.2
2019-03-08T20:59:11.041Z,4.1
2019-03-08T21:02:30.089Z,4.1
2019-03-08T21:04:43.891Z,3.9
2019-03-08T21:06:56.917Z,3.6
2019-03-08T21:10:16.357Z,3.9
2019-03-08T21:11:22.087Z,4.1
2019-03-08T21:14:42.035Z,4
2019-03-08T21:16:55.035Z,3.8
2019-03-08T21:18:01.807Z,4
2019-03-08T21:19:08.381Z,4
2019-03-08T21:20:14.835Z,3.5
2019-03-08T21:22:27.778Z,3.9
2019-03-08T21:23:34.320Z,4.3
2019-03-08T21:25:47.322Z,3.9
2019-03-08T21:26:53.767Z,4.1
2019-03-08T21:33:32.078Z,4.2
2019-03-08T21:34:39.263Z,3.8
2019-03-08T21:36:52.204Z,3.8
2019-03-08T21:37:58.768Z,4.2
2019-03-08T21:39:05.242Z,4
2019-03-08T21:43:31.017Z,3.8
2019-03-08T21:45:44.224Z,3.6
2019-03-08T21:46:50.716Z,3.9
2019-03-08T21:47:57.159Z,3.9
2019-03-08T21:49:03.669Z,3.9